KOWB/OWB METAR and TAF weather

Enter ICAO airport designator
Station Type Date Time Source
KOWB METAR 2020/07/12 18:56 UTC NOAA

KOWB 121856Z 35004KT 10SM -TSRA SCT030 BKN055 OVC085 24/23 A2981 RMK AO2 TSB1759RAB23 SLP093 TS OHD MOV SE OCNL LTGCG N-SE P0003 T02440233


Station Type Date Time Source
KOWB Decoded METAR 2020/07/12 18:56 UTC NOAA

Owensboro, Owensboro-Daviess County Airport, KY, United States (KOWB) 37-44-24N 087-10-00W
Jul 12, 2020 - 02:56 PM EDT / 2020.07.12 1856 UTC
Wind: from the N (350 degrees) at 5 MPH (4 KT):0
Visibility: 10 mile(s):0
Sky conditions: overcast
Weather: light rain with thunder; Lightning observed
Precipitation last hour: 0.03 inches
Temperature: 75.9 F (24.4 C)
Dew Point: 73.9 F (23.3 C)
Relative Humidity: 93%
Pressure (altimeter): 29.81 in. Hg (1009 hPa)
ob: KOWB 121856Z 35004KT 10SM -TSRA SCT030 BKN055 OVC085 24/23 A2981 RMK AO2 TSB1759RAB23 SLP093 TS OHD MOV SE OCNL LTGCG N-SE P0003 T02440233
cycle: 19

Station Type Date Time Source
KOWB TAF 2020/07/12 19:54 UTC NOAA

TAF
AMD KOWB 121852Z 1219/1318 36010KT P6SM VCTS SCT030CB BKN050
FM122100 36009KT P6SM SCT250
FM131200 01005KT P6SM SKC

Example: see airport list